TAF LDZD 230525Z 2306/2406 VRB02KT 9999 FEW030
                 TX19/2312Z TN07/2404Z
           BECMG 2308/2310 06008KT
    PROB30 TEMPO 2314/2406 06015KT=
TAF LDZD 222325Z 2300/2400 VRB02KT 9999 SCT040
                 TX19/2312Z TN11/2304Z
           BECMG 2306/2308 06008KT
    PROB30 TEMPO 2314/2400 06015KT=
TAF LDZD 221725Z 2218/2318 10006KT 9999 SCT040
                 TX19/2312Z TN11/2305Z
    PROB30 TEMPO 2218/2302 4000 TSRA BKN014 FEW020CB
           BECMG 2307/2309 06008KT
           TEMPO 2312/2318 06012KT=
TAF COR LDZD 221125Z 2212/2312 10006KT 9999 BKN035
                     TX17/2311Z TN11/2305Z
        PROB40 TEMPO 2212/2215 RA
        PROB30 TEMPO 2212/2300 4000 TSRA BKN014 FEW020CB
               BECMG 2310/2312 06008KT=
TAF AMD LDZD 220639Z 2206/2306 10006KT 9999 SCT027
                     TX17/2212Z TN11/2305Z
        PROB40 TEMPO 2206/2214 4000 RA
        PROB30 TEMPO 2206/2213 4000 TSRA FEW020CB BKN025
        PROB30 TEMPO 2218/2222 4000 -TSRA BKN014 FEW017CB=
TAF LDZD 220525Z 2206/2306 10006KT 9999 SCT027
                 TX17/2212Z TN11/2305Z
    PROB40 TEMPO 2206/2214 4000 RA
    PROB30 TEMPO 2209/2213 4000 TSRA FEW020CB BKN025
    PROB30 TEMPO 2218/2222 4000 -TSRA BKN014 FEW017CB=
TAF LDZD 212325Z 2200/2300 12009KT 9999 SCT030 BKN050
                 TX18/2212Z TN12/2223Z
    PROB40 TEMPO 2206/2214 TSRA FEW020CB BKN030
    PROB30 TEMPO 2217/2300 TSRA FEW020CB BKN030
           BECMG 2211/2213 06007KT=